createdAt,value
2022-07-30T00:02:31.020Z,2.50
2022-07-30T00:07:24.578Z,2.33
2022-07-30T00:12:18.164Z,2.05
2022-07-30T00:17:11.873Z,2.00
2022-07-30T00:22:06.759Z,2.13
2022-07-30T00:27:00.441Z,2.03
2022-07-30T00:36:54.575Z,2.00
2022-07-30T00:42:02.130Z,2.33
2022-07-30T00:46:56.134Z,2.03
2022-07-30T00:51:49.835Z,2.10
2022-07-30T00:56:44.045Z,2.08
2022-07-30T01:01:38.864Z,2.33
2022-07-30T01:06:32.419Z,2.40
2022-07-30T01:11:35.402Z,2.53
2022-07-30T01:16:29.650Z,2.20
2022-07-30T01:21:36.187Z,2.25
2022-07-30T01:26:32.938Z,2.50
2022-07-30T01:31:28.963Z,2.42
2022-07-30T01:36:24.586Z,2.38
2022-07-30T01:41:21.212Z,2.50
2022-07-30T01:46:18.718Z,2.35
2022-07-30T01:51:14.549Z,2.22
2022-07-30T01:56:12.986Z,2.35
2022-07-30T02:01:10.336Z,2.10
2022-07-30T02:06:12.093Z,2.60
2022-07-30T02:11:10.478Z,2.22
2022-07-30T02:16:16.367Z,2.30
2022-07-30T02:26:16.316Z,3.42
2022-07-30T02:31:17.706Z,2.75
2022-07-30T02:36:13.674Z,2.92
2022-07-30T02:41:13.401Z,2.90
2022-07-30T02:46:10.907Z,2.50
2022-07-30T02:51:06.409Z,2.80
2022-07-30T02:56:03.129Z,2.55
2022-07-30T03:00:59.858Z,2.53
2022-07-30T03:05:54.876Z,2.60
2022-07-30T03:10:50.187Z,2.50
2022-07-30T03:15:49.009Z,2.05
2022-07-30T03:20:47.224Z,2.55
2022-07-30T03:30:53.695Z,2.05
2022-07-30T03:35:49.342Z,2.40
2022-07-30T03:40:44.360Z,2.50
2022-07-30T03:50:44.396Z,2.50
2022-07-30T03:55:38.676Z,2.58
2022-07-30T04:00:32.091Z,2.47
2022-07-30T04:05:25.564Z,2.65
2022-07-30T04:10:20.353Z,2.40
2022-07-30T04:16:38.014Z,2.50
2022-07-30T04:20:37.961Z,2.70
2022-07-30T04:25:35.026Z,3.17
2022-07-30T04:30:29.585Z,2.95
2022-07-30T04:35:50.921Z,2.80
2022-07-30T04:40:44.109Z,2.75
2022-07-30T04:45:37.540Z,2.67
2022-07-30T04:50:36.173Z,2.47
2022-07-30T04:55:30.128Z,2.72
2022-07-30T05:00:25.124Z,2.58
2022-07-30T05:05:20.278Z,2.38
2022-07-30T05:10:14.609Z,2.20
2022-07-30T05:15:10.776Z,2.40
2022-07-30T05:20:07.284Z,2.13
2022-07-30T05:25:01.009Z,2.25
2022-07-30T05:29:55.466Z,2.63
2022-07-30T05:34:50.032Z,2.25
2022-07-30T05:40:00.502Z,2.67
2022-07-30T05:44:56.459Z,2.03
2022-07-30T05:49:50.085Z,2.30
2022-07-30T05:54:45.047Z,2.28
2022-07-30T05:59:38.473Z,2.28
2022-07-30T06:04:33.182Z,2.20
2022-07-30T06:09:36.801Z,2.38
2022-07-30T06:14:32.750Z,2.40
2022-07-30T06:19:26.257Z,2.20
2022-07-30T06:24:19.714Z,2.50
2022-07-30T06:29:16.337Z,2.58
2022-07-30T06:34:11.112Z,2.38
2022-07-30T06:39:05.074Z,2.47
2022-07-30T06:43:58.451Z,2.88
2022-07-30T06:48:51.875Z,2.80
2022-07-30T06:53:46.878Z,2.70
2022-07-30T06:58:40.678Z,2.53
2022-07-30T07:03:39.555Z,2.85
2022-07-30T07:13:36.019Z,2.50
2022-07-30T07:18:29.446Z,2.28
2022-07-30T07:28:23.356Z,2.53
2022-07-30T07:33:28.129Z,2.22
2022-07-30T07:38:21.573Z,2.28
2022-07-30T07:43:15.970Z,2.80
2022-07-30T07:48:09.571Z,2.78
2022-07-30T07:53:04.267Z,2.53
2022-07-30T07:57:57.836Z,2.60
2022-07-30T08:02:51.376Z,2.33
2022-07-30T08:12:56.921Z,2.78
2022-07-30T08:17:50.716Z,2.88
2022-07-30T08:22:44.701Z,2.67
2022-07-30T08:27:38.559Z,2.50
2022-07-30T08:32:44.757Z,2.60
2022-07-30T08:37:40.983Z,2.67
2022-07-30T08:42:36.689Z,2.63
2022-07-30T08:57:52.883Z,2.28
2022-07-30T09:07:56.717Z,2.13
2022-07-30T09:18:06.391Z,2.47
2022-07-30T09:23:02.782Z,1.92
2022-07-30T09:27:56.135Z,1.92
2022-07-30T09:32:52.642Z,1.73
2022-07-30T09:37:48.073Z,1.90
2022-07-30T09:47:56.954Z,1.80
2022-07-30T09:52:54.066Z,1.90
2022-07-30T09:57:58.703Z,1.80
2022-07-30T10:08:09.318Z,1.90
2022-07-30T10:23:35.842Z,2.03
2022-07-30T10:28:39.348Z,1.73
2022-07-30T10:33:36.664Z,2.20
2022-07-30T10:38:41.382Z,2.05
2022-07-30T10:48:36.904Z,1.75
2022-07-30T10:59:03.031Z,1.90
2022-07-30T11:04:29.755Z,1.80
2022-07-30T11:15:07.090Z,1.80
2022-07-30T11:20:13.280Z,1.60
2022-07-30T11:25:12.619Z,1.70
2022-07-30T11:30:38.938Z,1.67
2022-07-30T11:41:12.935Z,1.80
2022-07-30T11:46:10.772Z,1.88
2022-07-30T11:51:05.619Z,1.63
2022-07-30T12:01:19.567Z,1.67
2022-07-30T12:06:19.964Z,1.50
2022-07-30T12:11:14.219Z,1.70
2022-07-30T12:16:10.556Z,1.50
2022-07-30T12:21:08.412Z,1.70
2022-07-30T12:26:01.871Z,1.77
2022-07-30T12:30:57.616Z,1.50
2022-07-30T12:35:53.836Z,1.50
2022-07-30T12:40:59.490Z,1.50
2022-07-30T12:46:00.540Z,1.40
2022-07-30T12:51:07.274Z,1.45
2022-07-30T12:56:14.304Z,1.40
2022-07-30T13:01:12.901Z,1.30
2022-07-30T13:06:15.450Z,1.10
2022-07-30T13:11:08.891Z,1.38
2022-07-30T13:16:06.740Z,1.50
2022-07-30T13:21:01.457Z,1.42
2022-07-30T13:47:02.089Z,1.50
2022-07-30T13:51:55.654Z,1.50
2022-07-30T13:56:49.164Z,1.40
2022-07-30T14:01:43.115Z,1.40
2022-07-30T14:07:10.089Z,1.30
2022-07-30T14:12:03.439Z,1.40
2022-07-30T14:16:57.383Z,1.50
2022-07-30T14:21:52.988Z,1.70
2022-07-30T14:26:46.475Z,1.20
2022-07-30T14:31:40.664Z,1.40
2022-07-30T14:36:34.988Z,1.50
2022-07-30T14:41:32.989Z,1.55
2022-07-30T14:46:36.828Z,1.35
2022-07-30T14:51:45.516Z,1.23
2022-07-30T14:56:40.304Z,1.52
2022-07-30T15:01:33.668Z,1.58
2022-07-30T15:06:27.098Z,1.60
2022-07-30T15:11:22.002Z,1.42
2022-07-30T15:16:17.493Z,1.48
2022-07-30T15:26:11.581Z,1.27
2022-07-30T15:36:17.064Z,1.38
2022-07-30T15:46:20.617Z,1.63
2022-07-30T15:51:18.851Z,1.30
2022-07-30T15:56:14.601Z,1.50
2022-07-30T16:01:08.730Z,1.10
2022-07-30T16:11:14.093Z,1.25
2022-07-30T16:16:07.425Z,1.45
2022-07-30T16:26:13.101Z,1.50
2022-07-30T16:31:06.783Z,1.20
2022-07-30T16:51:35.763Z,1.40
2022-07-30T17:01:46.047Z,1.42
2022-07-30T17:06:41.160Z,1.17
2022-07-30T17:21:56.838Z,1.50
2022-07-30T17:26:50.266Z,1.55
2022-07-30T17:31:45.630Z,1.33
2022-07-30T17:36:40.598Z,1.52
2022-07-30T17:41:35.385Z,1.30
2022-07-30T17:46:48.718Z,1.20
2022-07-30T17:51:44.354Z,1.30
2022-07-30T17:56:39.744Z,1.20
2022-07-30T18:01:33.743Z,1.30
2022-07-30T18:12:20.620Z,1.40
2022-07-30T18:42:50.320Z,1.58
2022-07-30T19:08:27.671Z,1.40
2022-07-30T19:13:23.442Z,1.48
2022-07-30T19:18:21.435Z,2.17
2022-07-30T21:02:00.012Z,2.15
2022-07-30T21:06:53.714Z,2.00
2022-07-30T21:11:50.721Z,1.98
2022-07-30T21:16:56.137Z,1.60
2022-07-30T21:22:09.031Z,1.73
2022-07-30T21:27:02.386Z,1.77
2022-07-30T21:32:03.139Z,1.90
2022-07-30T21:37:02.239Z,1.95
2022-07-30T21:41:57.970Z,2.38
2022-07-30T21:57:13.667Z,1.77
2022-07-30T22:02:15.828Z,1.85
2022-07-30T22:07:12.374Z,1.98
2022-07-30T22:12:09.811Z,2.00
2022-07-30T22:17:22.563Z,2.20
2022-07-30T22:22:26.757Z,2.70
2022-07-30T22:27:22.014Z,2.30
2022-07-30T22:32:16.866Z,2.25
2022-07-30T22:37:13.739Z,2.22
2022-07-30T22:42:12.725Z,1.90
2022-07-30T22:47:15.677Z,2.30
2022-07-30T22:52:19.805Z,2.20
2022-07-30T22:57:15.978Z,2.40
2022-07-30T23:02:16.501Z,2.90
2022-07-30T23:07:13.889Z,3.05
2022-07-30T23:12:13.679Z,2.92
2022-07-30T23:17:08.040Z,2.15
2022-07-30T23:22:01.422Z,2.45
2022-07-30T23:26:54.813Z,2.60
2022-07-30T23:31:49.564Z,2.50
2022-07-30T23:36:42.949Z,2.33
2022-07-30T23:41:36.453Z,2.45
2022-07-30T23:46:29.918Z,2.70
2022-07-30T23:51:24.679Z,2.60
2022-07-30T23:56:18.648Z,2.50
